Hlavní strana
METAR-TAF:

METAR-TAF

Letiště :

Letiště Sliač

Banská Bystrica, Slovensko

zeměpisná šířka: 48-38-17N, zeměpisná délka: 019-08-03E, výška: 318 m

Aktuální stav počasí

Zpráva byla vytvořena před 25 minutami, v 07:30 UTC
vítr z různých směrů 1 kt
Teplota 18°C
Vlhkost vzduchu 73%
Tlak 1022 hPa
Viditelnost 10 km a více
Skoro jasno ve výšce 3000 ft

METAR: LZSL 260730Z VRB01KT 9999 FEW030 18/13 Q1022

Čas: 09:55 (07:55 UTC)


TAF: chybějící

Stav a předpovědi počasí z více než 4 000 letišť (zprávy METAR a TAF).

Červené a žluté tečky na mapě představují dostupné meteorologické stanice.

Když kurzor umístíte na tečku, zobrazí se název stanice.

Pak kliknutím zobrazíte stav a předpověď počasí.

Chcete-li změnit mapu, kliknutím na zelené tlačítko se znaménkem +mapu přiblížíte, kliknutím na zelené tlačítko se znaménkem – mapu oddálíte a kliknutím na zelené šipky přejdete na sousední mapy.


METAR-TAF: